Time;durP1;ratioP1;P1;durP2;ratioP2;P2;SDS_P1;SDS_P2;PMS_P1;PMS_P2;Temp;Humidity;BMP_temperature;BMP_pressure;BME280_temperature;BME280_humidity;BME280_pressure;Samples;Min_cycle;Max_cycle;Signal;HPM_P1;HPM_P2
2023/05/06 00:00:50;;;;;;;10.02;4.50;;;;;;;12.96;83.07;100260.19;5054286;28;20055;-44
2023/05/06 00:03:37;;;;;;;14.63;3.83;;;;;;;13.01;83.18;100271.00;5067872;28;20078;-46
2023/05/06 00:06:24;;;;;;;9.30;4.03;;;;;;;12.97;83.10;100270.97;5075338;28;20059;-44
2023/05/06 00:09:11;;;;;;;13.40;3.80;;;;;;;12.97;82.83;100267.38;5054906;28;20049;-44
2023/05/06 00:11:58;;;;;;;17.85;4.57;;;;;;;12.92;83.07;100262.91;5065387;28;20597;-44
2023/05/06 00:14:45;;;;;;;6.13;4.07;;;;;;;12.86;83.42;100269.19;5080790;28;20044;-51
2023/05/06 00:17:32;;;;;;;9.75;3.70;;;;;;;12.83;83.38;100265.97;5067024;28;20041;-44
2023/05/06 00:20:19;;;;;;;9.90;3.65;;;;;;;12.79;83.23;100259.53;5066667;28;20049;-44
2023/05/06 00:23:06;;;;;;;10.60;3.63;;;;;;;12.76;83.42;100254.72;5066821;28;20548;-46
2023/05/06 00:25:54;;;;;;;6.63;3.40;;;;;;;12.73;83.26;100255.47;5066981;28;20083;-45
2023/05/06 00:28:41;;;;;;;15.07;4.38;;;;;;;12.64;83.32;100262.44;5056456;28;20059;-45
2023/05/06 00:31:28;;;;;;;10.70;2.88;;;;;;;12.55;83.73;100262.69;5071513;28;20044;-46
2023/05/06 00:34:15;;;;;;;7.45;3.55;;;;;;;12.53;83.54;100262.28;5067499;28;20059;-46
2023/05/06 00:37:02;;;;;;;8.88;3.28;;;;;;;12.46;83.86;100272.44;5066001;28;20755;-45
2023/05/06 00:39:49;;;;;;;6.80;3.13;;;;;;;12.43;84.09;100282.31;5069218;28;20048;-45
2023/05/06 00:42:35;;;;;;;7.35;2.67;;;;;;;12.41;83.96;100284.66;5066401;28;20401;-44
2023/05/06 00:45:24;;;;;;;8.05;3.25;;;;;;;12.41;83.94;100293.00;5065643;28;20074;-50
2023/05/06 00:48:11;;;;;;;8.80;2.67;;;;;;;12.50;84.01;100289.97;5066564;28;20063;-44
2023/05/06 00:50:58;;;;;;;4.93;2.65;;;;;;;12.54;83.40;100285.28;5077562;28;20052;-45
2023/05/06 00:53:45;;;;;;;7.50;3.08;;;;;;;12.45;83.27;100282.75;5064996;28;20501;-46
2023/05/06 00:56:32;;;;;;;8.45;3.90;;;;;;;12.37;83.68;100281.00;5065539;28;20053;-50
2023/05/06 00:59:20;;;;;;;7.85;3.50;;;;;;;12.36;83.75;100284.97;5054659;28;20059;-45
2023/05/06 01:02:08;;;;;;;10.35;4.15;;;;;;;12.31;83.81;100276.91;5065399;28;20045;-45
2023/05/06 01:04:55;;;;;;;7.35;4.05;;;;;;;12.30;83.94;100280.88;5066284;28;20052;-45
2023/05/06 01:07:57;;;;;;;9.50;4.60;;;;;;;12.28;84.20;100282.44;5066597;28;20057;-46
2023/05/06 01:10:51;;;;;;;9.13;3.35;;;;;;;12.20;84.09;100270.38;5066367;28;20047;-49
2023/05/06 01:13:47;;;;;;;19.17;4.00;;;;;;;12.15;84.23;100274.25;5065917;28;20048;-46
2023/05/06 01:16:37;;;;;;;11.23;3.50;;;;;;;12.12;84.47;100263.09;5065788;28;20501;-45
2023/05/06 01:19:47;;;;;;;9.20;3.15;;;;;;;12.12;84.62;100268.66;5054488;28;20061;-45
2023/05/06 01:22:35;;;;;;;10.77;4.05;;;;;;;12.13;84.56;100264.69;5038567;28;20390;-45
2023/05/06 01:25:22;;;;;;;6.82;2.65;;;;;;;12.13;84.42;100270.22;5050434;28;20417;-45
2023/05/06 01:28:10;;;;;;;9.23;3.13;;;;;;;12.08;84.69;100264.97;5049624;28;20044;-44
2023/05/06 01:31:06;;;;;;;17.60;6.00;;;;;;;12.06;84.77;100270.09;5049542;28;20049;-45
2023/05/06 01:34:14;;;;;;;12.50;3.40;;;;;;;12.03;84.94;100265.28;5049835;28;20560;-44
2023/05/06 01:37:12;;;;;;;8.07;2.63;;;;;;;12.03;84.68;100270.84;5042468;28;20061;-44
2023/05/06 01:40:01;;;;;;;6.75;2.47;;;;;;;12.05;84.72;100257.38;5050016;28;20545;-44
2023/05/06 01:42:49;;;;;;;9.68;3.33;;;;;;;12.06;84.60;100254.28;5049865;28;20056;-44
2023/05/06 01:45:38;;;;;;;7.53;3.47;;;;;;;12.06;84.55;100264.56;5049880;28;20045;-44
2023/05/06 01:48:27;;;;;;;5.97;2.65;;;;;;;12.04;84.54;100251.06;5048963;28;20057;-44
2023/05/06 01:51:14;;;;;;;8.77;2.75;;;;;;;11.99;84.57;100237.47;5049433;28;20051;-44
2023/05/06 01:54:02;;;;;;;11.07;3.00;;;;;;;11.96;84.55;100243.78;5036233;28;20425;-44
2023/05/06 01:56:49;;;;;;;8.32;2.83;;;;;;;11.94;84.69;100245.31;5048813;28;20049;-44
2023/05/06 01:59:36;;;;;;;9.15;2.75;;;;;;;11.93;84.72;100252.81;5049151;28;20056;-46
2023/05/06 02:02:23;;;;;;;6.72;3.08;;;;;;;11.95;84.52;100252.44;5049600;28;20045;-44
2023/05/06 02:05:10;;;;;;;11.43;3.33;;;;;;;11.96;84.71;100254.06;5049409;28;20060;-45
2023/05/06 02:07:57;;;;;;;8.55;2.55;;;;;;;11.92;84.54;100247.63;5049696;28;20059;-45
2023/05/06 02:10:44;;;;;;;5.88;2.80;;;;;;;11.88;84.66;100249.53;5038503;28;20041;-47
2023/05/06 02:13:31;;;;;;;12.13;2.97;;;;;;;11.84;84.84;100254.19;5049327;28;20889;-44
2023/05/06 02:16:19;;;;;;;7.70;2.42;;;;;;;11.80;84.91;100250.56;5049506;28;20055;-44
2023/05/06 02:19:06;;;;;;;8.80;2.80;;;;;;;11.76;85.23;100244.13;5049302;28;20410;-44
2023/05/06 02:21:53;;;;;;;7.32;2.67;;;;;;;11.74;85.34;100252.00;5054278;28;20057;-49
2023/05/06 02:24:40;;;;;;;4.85;2.55;;;;;;;11.74;85.38;100257.56;5068914;28;20048;-46
2023/05/06 02:27:27;;;;;;;18.92;4.68;;;;;;;11.71;85.31;100261.06;5055088;28;20498;-44
2023/05/06 02:30:14;;;;;;;7.45;2.42;;;;;;;11.67;85.55;100263.75;5057891;28;20726;-45
2023/05/06 02:33:01;;;;;;;9.20;4.13;;;;;;;11.68;85.76;100258.97;5068894;28;20122;-46
2023/05/06 02:35:49;;;;;;;4.63;2.63;;;;;;;11.70;85.80;100256.69;5068575;28;20071;-45
2023/05/06 02:38:36;;;;;;;10.57;2.83;;;;;;;11.72;85.73;100249.63;5068412;28;20091;-45
2023/05/06 02:41:23;;;;;;;9.23;3.08;;;;;;;11.75;85.86;100262.75;5068133;28;20056;-45
2023/05/06 02:44:10;;;;;;;11.18;3.03;;;;;;;11.81;85.96;100257.72;5068154;28;20448;-45
2023/05/06 02:46:57;;;;;;;6.10;2.38;;;;;;;11.84;85.98;100256.97;5066996;28;20056;-45
2023/05/06 02:49:44;;;;;;;6.95;2.65;;;;;;;11.87;85.96;100259.00;5068318;28;20049;-45
2023/05/06 02:52:32;;;;;;;7.85;3.72;;;;;;;11.90;85.92;100256.31;5061663;28;20057;-45
2023/05/06 02:55:19;;;;;;;8.07;2.78;;;;;;;11.92;85.86;100261.50;5063240;28;20398;-46
2023/05/06 02:58:06;;;;;;;7.15;2.88;;;;;;;11.92;86.04;100253.16;5068248;28;20048;-45
2023/05/06 03:00:53;;;;;;;8.52;3.47;;;;;;;11.93;85.96;100249.25;5145053;22;20045;-45
2023/05/06 03:03:40;;;;;;;6.35;2.72;;;;;;;11.95;86.11;100258.00;5094726;28;20094;-46
2023/05/06 03:06:27;;;;;;;11.15;4.10;;;;;;;11.96;85.80;100254.88;5108001;28;20192;-45
2023/05/06 03:09:14;;;;;;;8.00;2.70;;;;;;;11.97;85.78;100250.09;5096502;28;20054;-45
2023/05/06 03:12:01;;;;;;;10.88;3.35;;;;;;;11.96;85.90;100254.06;5107444;28;20047;-44
2023/05/06 03:14:48;;;;;;;6.05;2.22;;;;;;;11.91;85.65;100263.50;5107195;28;20424;-45
2023/05/06 03:17:36;;;;;;;8.38;3.30;;;;;;;11.91;85.72;100259.91;5107933;28;20048;-45
2023/05/06 03:20:23;;;;;;;4.57;2.50;;;;;;;11.90;85.78;100244.41;5094696;28;20054;-45
2023/05/06 03:23:10;;;;;;;10.93;2.78;;;;;;;11.87;85.73;100256.25;5106713;28;20519;-45
2023/05/06 03:25:57;;;;;;;7.90;3.00;;;;;;;11.85;85.61;100255.81;5106921;28;20564;-44
2023/05/06 03:28:44;;;;;;;7.13;2.58;;;;;;;11.82;85.79;100249.03;5107990;28;20048;-45
2023/05/06 03:31:31;;;;;;;10.38;2.75;;;;;;;11.80;85.77;100254.16;5107344;28;20493;-49
2023/05/06 03:34:18;;;;;;;12.23;2.95;;;;;;;11.81;85.69;100254.94;5107168;28;20527;-48
2023/05/06 03:37:05;;;;;;;7.70;2.50;;;;;;;11.80;85.79;100251.38;5107056;28;20047;-45
2023/05/06 03:39:52;;;;;;;10.75;3.65;;;;;;;11.83;85.76;100249.84;5094758;28;20047;-45
2023/05/06 03:42:39;;;;;;;15.38;4.75;;;;;;;11.81;85.69;100246.63;5106878;28;20136;-45
2023/05/06 03:45:26;;;;;;;13.23;4.22;;;;;;;11.79;86.00;100243.41;5106070;28;20047;-45
2023/05/06 03:48:13;;;;;;;11.68;4.60;;;;;;;11.79;86.01;100248.94;5106787;28;20062;-45
2023/05/06 03:51:00;;;;;;;17.27;4.05;;;;;;;11.77;85.96;100249.31;5092992;27;20412;-44
2023/05/06 03:53:48;;;;;;;18.65;4.40;;;;;;;11.77;86.14;100248.50;5092431;28;20515;-45
2023/05/06 03:56:35;;;;;;;28.75;5.88;;;;;;;11.72;86.23;100240.50;5106656;28;20047;-45
2023/05/06 03:59:21;;;;;;;14.32;3.80;;;;;;;11.69;86.32;100239.25;5107466;28;20055;-45
2023/05/06 04:02:08;;;;;;;12.82;5.38;;;;;;;11.65;86.42;100243.09;5107481;28;20058;-44
2023/05/06 04:04:55;;;;;;;13.35;3.88;;;;;;;11.61;86.82;100237.47;5106975;28;20046;-47
2023/05/06 04:07:42;;;;;;;10.15;3.00;;;;;;;11.58;86.94;100233.44;5106746;28;20490;-44
2023/05/06 04:10:29;;;;;;;8.85;3.08;;;;;;;11.55;86.95;100236.13;5107120;28;20059;-45
2023/05/06 04:13:16;;;;;;;9.52;3.90;;;;;;;11.52;87.27;100240.44;5106859;28;20496;-46
2023/05/06 04:16:04;;;;;;;10.07;2.80;;;;;;;11.50;87.24;100248.31;5107085;28;20051;-44
2023/05/06 04:18:51;;;;;;;9.85;2.90;;;;;;;11.50;87.39;100245.56;5095744;28;20047;-48
2023/05/06 04:21:38;;;;;;;10.93;3.35;;;;;;;11.50;87.26;100242.78;5106572;28;20047;-44
2023/05/06 04:24:27;;;;;;;6.25;2.85;;;;;;;11.50;87.15;100242.78;5106136;28;20051;-52
2023/05/06 04:27:14;;;;;;;7.55;3.42;;;;;;;11.50;87.45;100245.56;5107172;28;20048;-46
2023/05/06 04:30:01;;;;;;;4.15;2.53;;;;;;;11.50;87.42;100248.31;5106962;28;20408;-44
2023/05/06 04:32:48;;;;;;;18.80;4.88;;;;;;;11.50;87.51;100242.78;5091360;28;20051;-45
2023/05/06 04:35:35;;;;;;;15.38;3.10;;;;;;;11.48;87.49;100249.84;5106152;28;20126;-44
2023/05/06 04:38:24;;;;;;;8.80;3.05;;;;;;;11.48;87.77;100239.56;5096420;28;20492;-48
2023/05/06 04:41:11;;;;;;;15.65;4.57;;;;;;;11.49;87.65;100245.94;5106459;28;20153;-45
2023/05/06 04:43:58;;;;;;;8.90;2.88;;;;;;;11.49;87.78;100243.16;5106915;28;20048;-45
2023/05/06 04:46:46;;;;;;;7.97;2.90;;;;;;;11.47;87.83;100249.03;5107479;28;20657;-48
2023/05/06 04:49:33;;;;;;;11.05;3.33;;;;;;;11.47;88.00;100242.69;5106268;28;20052;-44
2023/05/06 04:52:20;;;;;;;5.95;2.90;;;;;;;11.45;88.08;100240.31;5099553;28;20055;-47
2023/05/06 04:55:08;;;;;;;11.32;3.97;;;;;;;11.43;88.13;100248.19;5106865;28;20052;-44
2023/05/06 04:57:55;;;;;;;13.52;3.85;;;;;;;11.45;88.42;100245.03;5096032;28;20054;-45
2023/05/06 05:00:42;;;;;;;9.13;3.88;;;;;;;11.46;88.43;100252.97;5110097;27;20051;-45
2023/05/06 05:03:29;;;;;;;17.95;3.78;;;;;;;11.47;88.48;100245.47;5110580;28;20437;-45
2023/05/06 05:06:16;;;;;;;8.05;3.92;;;;;;;11.48;88.41;100256.22;5109974;28;20066;-45
2023/05/06 05:09:03;;;;;;;10.27;4.05;;;;;;;11.49;88.18;100252.25;5097316;28;20058;-44
2023/05/06 05:11:50;;;;;;;15.82;4.00;;;;;;;11.50;88.46;100253.06;5109691;28;20477;-48
2023/05/06 05:14:37;;;;;;;10.70;3.63;;;;;;;11.48;88.50;100255.41;5110635;28;20054;-44
2023/05/06 05:17:24;;;;;;;7.88;3.88;;;;;;;11.46;88.67;100261.28;5109923;27;20056;-44
2023/05/06 05:20:11;;;;;;;13.38;3.90;;;;;;;11.45;88.90;100258.91;5110288;28;20408;-47
2023/05/06 05:22:58;;;;;;;8.05;3.10;;;;;;;11.46;88.99;100261.28;5109252;28;20055;-45
2023/05/06 05:25:45;;;;;;;12.68;3.78;;;;;;;11.51;89.21;100266.56;5110135;28;20493;-47
2023/05/06 05:28:32;;;;;;;10.80;3.08;;;;;;;11.56;89.29;100263.53;5098394;28;20047;-45
2023/05/06 05:31:19;;;;;;;17.70;4.53;;;;;;;11.60;89.22;100264.38;5109705;28;20059;-45
2023/05/06 05:34:06;;;;;;;13.10;3.85;;;;;;;11.66;89.35;100267.66;5110444;27;20556;-47
2023/05/06 05:36:53;;;;;;;12.63;3.58;;;;;;;11.74;89.20;100274.19;5108884;28;20047;-45
2023/05/06 05:39:40;;;;;;;14.57;4.00;;;;;;;11.79;89.25;100265.59;5096390;28;20047;-44
2023/05/06 05:42:32;;;;;;;10.73;4.07;;;;;;;11.85;89.30;100269.69;5109664;28;20051;-44
2023/05/06 05:45:20;;;;;;;6.57;2.80;;;;;;;11.93;89.32;100268.66;5109036;28;20211;-46
2023/05/06 05:48:07;;;;;;;12.52;3.70;;;;;;;11.99;89.30;100272.75;5108616;28;20051;-45
2023/05/06 05:50:54;;;;;;;9.68;3.15;;;;;;;12.06;89.41;100272.88;5108598;27;20073;-45
2023/05/06 05:53:41;;;;;;;12.48;3.50;;;;;;;12.13;89.51;100268.28;5104135;28;20063;-45
2023/05/06 05:56:28;;;;;;;11.57;4.15;;;;;;;12.19;89.53;100274.31;5109628;28;20401;-44
2023/05/06 05:59:15;;;;;;;8.50;2.92;;;;;;;12.23;89.47;100286.31;5095724;28;20047;-45
2023/05/06 06:02:02;;;;;;;10.80;2.90;;;;;;;12.27;89.40;100284.41;5108631;28;20337;-46
2023/05/06 06:04:49;;;;;;;9.60;4.40;;;;;;;12.28;89.57;100280.47;5108565;28;20508;-45
2023/05/06 06:07:36;;;;;;;9.57;2.95;;;;;;;12.31;89.63;100279.69;5098374;27;20160;-44
2023/05/06 06:10:23;;;;;;;8.40;3.47;;;;;;;12.34;89.56;100286.50;5109204;28;20275;-45
2023/05/06 06:13:11;;;;;;;9.05;3.25;;;;;;;12.38;89.59;100295.69;5109008;28;20059;-45
2023/05/06 06:15:58;;;;;;;9.90;4.57;;;;;;;12.40;89.77;100296.94;5108793;28;20130;-44
2023/05/06 06:18:45;;;;;;;10.85;4.50;;;;;;;12.43;89.84;100298.97;5108179;28;20059;-45
2023/05/06 06:21:32;;;;;;;10.02;4.20;;;;;;;12.46;89.92;100301.03;5108612;28;20039;-47
2023/05/06 06:24:19;;;;;;;10.63;4.22;;;;;;;12.50;90.02;100301.88;5112089;27;20050;-45
2023/05/06 06:27:06;;;;;;;12.63;4.63;;;;;;;12.54;89.99;100302.75;5097611;28;20180;-45
2023/05/06 06:29:54;;;;;;;11.77;4.85;;;;;;;12.58;89.99;100303.63;5109017;28;20051;-45
2023/05/06 06:32:51;;;;;;;10.38;5.28;;;;;;;12.61;90.03;100305.66;5108379;28;20056;-45
2023/05/06 06:35:38;;;;;;;11.20;4.63;;;;;;;12.66;90.04;100310.91;5108918;28;20047;-48
2023/05/06 06:38:25;;;;;;;17.33;5.57;;;;;;;12.73;90.23;100316.56;5094110;28;20048;-45
2023/05/06 06:41:13;;;;;;;13.23;5.15;;;;;;;12.81;90.25;100312.75;5095240;28;20409;-45
2023/05/06 06:43:59;;;;;;;12.55;5.40;;;;;;;12.87;90.29;100329.13;5108295;28;20063;-47
2023/05/06 06:46:46;;;;;;;11.75;4.85;;;;;;;12.91;90.39;100322.47;5108103;28;20048;-51
2023/05/06 06:49:34;;;;;;;17.17;5.65;;;;;;;12.93;90.38;100324.84;5107767;28;20051;-45
2023/05/06 06:52:20;;;;;;;17.02;5.18;;;;;;;12.93;90.52;100325.66;5106724;28;20511;-45
2023/05/06 06:55:08;;;;;;;17.35;5.10;;;;;;;12.94;90.62;100329.25;5107696;28;20543;-46
2023/05/06 06:57:55;;;;;;;10.98;4.90;;;;;;;12.94;90.84;100327.28;5108283;27;20498;-46
2023/05/06 07:00:42;;;;;;;14.80;5.72;;;;;;;12.96;90.92;100324.13;5105745;28;20071;-48
2023/05/06 07:03:29;;;;;;;14.98;5.50;;;;;;;12.97;91.04;100325.72;5107994;28;20579;-45
2023/05/06 07:06:16;;;;;;;15.13;4.70;;;;;;;13.01;91.19;100321.03;5107706;28;20059;-45
2023/05/06 07:09:03;;;;;;;12.00;4.53;;;;;;;13.08;90.89;100323.97;5108225;28;20039;-45
2023/05/06 07:11:50;;;;;;;7.82;4.32;;;;;;;13.13;91.05;100321.66;5107766;28;20055;-45
2023/05/06 07:14:37;;;;;;;15.23;4.97;;;;;;;13.18;90.85;100320.56;5107968;28;20055;-46
2023/05/06 07:17:24;;;;;;;20.05;4.70;;;;;;;13.23;90.72;100323.81;5108122;28;20059;-45
2023/05/06 07:20:12;;;;;;;8.75;4.50;;;;;;;13.29;90.90;100332.66;5094635;28;20562;-46
2023/05/06 07:22:59;;;;;;;12.52;4.13;;;;;;;13.34;90.52;100330.31;5106981;28;20086;-51
2023/05/06 07:25:46;;;;;;;12.77;5.00;;;;;;;13.35;90.74;100320.00;5107456;28;20039;-49
2023/05/06 07:28:33;;;;;;;14.82;5.00;;;;;;;13.40;90.80;100330.81;5096075;28;20040;-45
2023/05/06 07:31:20;;;;;;;9.45;3.65;;;;;;;13.42;90.78;100331.25;5106885;28;20052;-48
2023/05/06 07:34:07;;;;;;;11.45;4.85;;;;;;;13.40;90.59;100330.81;5107526;28;20059;-45
2023/05/06 07:36:54;;;;;;;8.55;3.88;;;;;;;13.41;90.72;100335.22;5106749;28;20086;-46
2023/05/06 07:39:42;;;;;;;18.65;4.18;;;;;;;13.44;90.62;100331.69;5107721;28;20208;-50
2023/05/06 07:42:29;;;;;;;12.30;4.28;;;;;;;13.51;90.69;100333.75;5106595;28;20378;-46
2023/05/06 07:45:16;;;;;;;13.88;3.85;;;;;;;13.57;90.67;100321.13;5107781;28;20475;-45
2023/05/06 07:48:03;;;;;;;11.32;4.75;;;;;;;13.63;90.58;100331.56;5096748;28;20489;-47
2023/05/06 07:50:50;;;;;;;10.45;4.03;;;;;;;13.62;90.31;100335.53;5105135;28;20079;-46
2023/05/06 07:53:39;;;;;;;9.52;3.13;;;;;;;13.64;90.13;100337.91;5107217;28;20605;-47
2023/05/06 07:56:25;;;;;;;8.70;3.10;;;;;;;13.66;90.17;100341.16;5108335;28;20420;-46
2023/05/06 07:59:13;;;;;;;13.93;3.88;;;;;;;13.67;89.93;100340.75;5108314;28;20059;-47
2023/05/06 08:02:00;;;;;;;11.75;3.60;;;;;;;13.72;89.93;100351.56;5106255;28;20059;-45
2023/05/06 08:04:47;;;;;;;9.65;3.38;;;;;;;13.80;89.88;100353.25;5106570;28;20039;-47
2023/05/06 08:07:41;;;;;;;9.63;3.10;;;;;;;13.88;89.81;100343.84;5107968;27;20058;-45
2023/05/06 08:10:28;;;;;;;24.70;6.25;;;;;;;13.97;89.77;100351.91;5107066;28;20054;-45
2023/05/06 08:13:15;;;;;;;15.25;3.00;;;;;;;14.06;89.50;100351.63;5106904;28;20636;-45
2023/05/06 08:16:02;;;;;;;10.13;3.20;;;;;;;14.12;89.14;100341.75;5107014;28;20043;-44
2023/05/06 08:18:49;;;;;;;9.65;3.17;;;;;;;14.20;89.31;100349.00;5106518;28;20548;-45
2023/05/06 08:21:36;;;;;;;10.70;4.80;;;;;;;14.32;89.33;100343.25;5107568;28;20044;-45
2023/05/06 08:24:23;;;;;;;11.00;2.85;;;;;;;14.40;89.16;100353.28;5107638;28;20043;-45
2023/05/06 08:27:10;;;;;;;4.53;2.40;;;;;;;14.45;89.06;100355.72;5106531;28;20058;-47
2023/05/06 08:29:57;;;;;;;10.52;3.03;;;;;;;14.41;88.55;100357.66;5105780;28;20043;-45
2023/05/06 08:32:44;;;;;;;9.88;3.47;;;;;;;14.33;88.36;100353.19;5108288;28;20402;-46
2023/05/06 08:35:31;;;;;;;11.57;3.50;;;;;;;14.31;88.32;100366.66;5111004;28;20511;-49
2023/05/06 08:38:18;;;;;;;9.48;2.65;;;;;;;14.30;88.24;100359.47;5099239;28;20047;-45
2023/05/06 08:41:08;;;;;;;10.35;2.97;;;;;;;14.31;88.21;100347.16;5111177;27;20043;-47
2023/05/06 08:43:57;;;;;;;8.52;2.90;;;;;;;14.35;87.98;100353.63;5109668;28;20066;-44
2023/05/06 08:46:45;;;;;;;11.43;3.40;;;;;;;14.39;87.72;100355.25;5110943;28;20066;-46
2023/05/06 08:49:33;;;;;;;6.25;2.75;;;;;;;14.41;87.42;100354.88;5102372;28;20093;-50
2023/05/06 08:52:21;;;;;;;9.45;3.00;;;;;;;14.40;87.27;100358.84;5107073;28;20047;-46
2023/05/06 08:55:08;;;;;;;10.35;3.30;;;;;;;14.36;87.03;100358.00;5111309;28;20047;-45
2023/05/06 08:57:56;;;;;;;10.93;2.80;;;;;;;14.28;86.60;100365.44;5108069;27;20043;-47
2023/05/06 09:00:45;;;;;;;5.22;2.88;;;;;;;14.27;86.80;100368.59;5110252;27;20447;-51
2023/05/06 09:03:32;;;;;;;8.82;2.92;;;;;;;14.26;86.54;100364.22;5109943;28;20113;-45
2023/05/06 09:06:19;;;;;;;7.90;3.20;;;;;;;14.29;86.69;100363.47;5109945;28;20094;-45
2023/05/06 09:09:06;;;;;;;12.00;3.47;;;;;;;14.36;86.46;100358.81;5110965;28;20071;-46
2023/05/06 09:11:56;;;;;;;11.40;4.13;;;;;;;14.47;86.49;100365.31;5109689;28;20055;-50
2023/05/06 09:14:44;;;;;;;9.65;3.83;;;;;;;14.59;86.23;100358.66;5111067;27;20131;-46
2023/05/06 09:17:31;;;;;;;14.38;3.55;;;;;;;14.75;86.17;100353.66;5110008;28;20154;-47
2023/05/06 09:20:18;;;;;;;15.65;3.70;;;;;;;14.85;86.05;100355.72;5095791;28;20501;-45
2023/05/06 09:23:08;;;;;;;17.02;5.25;;;;;;;14.93;85.99;100342.69;5109608;28;20496;-45
2023/05/06 09:25:55;;;;;;;14.15;4.15;;;;;;;14.97;85.84;100352.69;5109924;28;20050;-45
2023/05/06 09:28:45;;;;;;;18.23;4.25;;;;;;;14.98;85.89;100345.94;5099540;28;20051;-45
2023/05/06 09:31:39;;;;;;;18.88;4.53;;;;;;;14.96;85.88;100341.91;5109797;27;20054;-48
2023/05/06 09:34:26;;;;;;;14.40;4.03;;;;;;;14.92;85.79;100346.66;5109209;28;20063;-44
2023/05/06 09:37:13;;;;;;;17.73;4.53;;;;;;;14.86;85.51;100343.41;5103829;27;20048;-45
2023/05/06 09:40:00;;;;;;;15.20;4.03;;;;;;;14.78;85.70;100338.94;5096253;28;20059;-44
2023/05/06 09:42:50;;;;;;;12.00;4.53;;;;;;;14.71;85.53;100358.41;5094763;28;20178;-49
2023/05/06 09:45:37;;;;;;;13.18;4.05;;;;;;;14.65;85.47;100359.91;5084466;28;20051;-45
2023/05/06 09:48:29;;;;;;;20.00;5.30;;;;;;;14.60;85.36;100368.63;5095749;27;20052;-47
2023/05/06 09:51:16;;;;;;;21.98;6.65;;;;;;;14.61;85.28;100370.22;5100902;28;20408;-47
2023/05/06 09:54:04;;;;;;;16.73;4.57;;;;;;;14.57;84.89;100370.19;5101491;28;20489;-46
2023/05/06 09:56:52;;;;;;;19.52;6.07;;;;;;;14.57;84.87;100363.81;5092116;28;20070;-47
2023/05/06 09:59:40;;;;;;;24.88;6.97;;;;;;;14.60;84.82;100363.03;5103649;28;20240;-46
2023/05/06 10:02:28;;;;;;;14.82;5.18;;;;;;;14.65;84.88;100371.06;5100425;28;20048;-45
2023/05/06 10:05:15;;;;;;;19.92;6.30;;;;;;;14.67;84.76;100371.47;5100674;27;20122;-45
2023/05/06 10:08:03;;;;;;;18.65;5.57;;;;;;;14.71;84.74;100369.53;5093555;28;20050;-45
2023/05/06 10:10:51;;;;;;;25.67;6.20;;;;;;;14.75;84.90;100369.56;5090987;28;20052;-45
2023/05/06 10:13:39;;;;;;;19.77;6.38;;;;;;;14.84;84.80;100361.69;5093932;28;20047;-45
2023/05/06 10:16:27;;;;;;;17.40;5.15;;;;;;;14.95;84.74;100369.00;5099100;28;20044;-45
2023/05/06 10:19:23;;;;;;;18.88;4.97;;;;;;;15.12;84.35;100368.34;5093547;28;20056;-45
2023/05/06 10:22:25;;;;;;;22.75;5.50;;;;;;;15.45;83.77;100372.19;5100804;28;20052;-46
2023/05/06 10:25:24;;;;;;;22.52;5.80;;;;;;;15.74;83.04;100386.00;5102595;28;20442;-45
2023/05/06 10:28:11;;;;;;;15.05;3.95;;;;;;;15.90;82.45;100373.72;5099672;28;20059;-45
2023/05/06 10:31:18;;;;;;;17.35;4.50;;;;;;;16.03;82.19;100384.19;5096855;28;20060;-50
2023/05/06 10:34:07;;;;;;;19.45;4.30;;;;;;;16.11;82.09;100374.66;5096382;28;20186;-46
2023/05/06 10:36:56;;;;;;;12.40;4.03;;;;;;;16.14;82.18;100382.25;5095757;28;20508;-45
2023/05/06 10:39:44;;;;;;;15.20;4.30;;;;;;;16.12;82.34;100379.06;5103207;27;20151;-45
2023/05/06 10:42:34;;;;;;;13.65;4.47;;;;;;;16.17;82.41;100381.47;5095702;28;20048;-46
2023/05/06 10:45:21;;;;;;;13.45;4.72;;;;;;;16.24;82.36;100384.28;5091134;28;20052;-50
2023/05/06 10:48:08;;;;;;;13.88;4.15;;;;;;;16.31;81.69;100378.72;5101865;28;20052;-45
2023/05/06 10:51:24;;;;;;;14.10;4.07;;;;;;;16.51;81.67;100381.19;5092562;28;20887;-53
2023/05/06 10:54:17;;;;;;;11.48;3.40;;;;;;;16.54;81.02;100380.44;5098158;28;20059;-45
2023/05/06 10:57:09;;;;;;;10.45;3.78;;;;;;;16.59;80.69;100378.06;5088680;28;20048;-52
2023/05/06 10:59:56;;;;;;;10.75;4.03;;;;;;;16.68;80.11;100375.69;5088620;28;20440;-45
2023/05/06 11:02:43;;;;;;;11.90;4.13;;;;;;;16.66;80.02;100377.28;5099933;28;20051;-46
2023/05/06 11:05:50;;;;;;;12.32;3.50;;;;;;;16.66;79.93;100385.66;5099377;28;20112;-45
2023/05/06 11:08:38;;;;;;;10.10;3.25;;;;;;;16.64;79.63;100396.44;5091703;28;20100;-46
2023/05/06 11:11:46;;;;;;;9.75;4.10;;;;;;;16.55;79.45;100385.63;5091149;28;20055;-47
2023/05/06 11:14:37;;;;;;;16.35;3.45;;;;;;;16.41;79.36;100375.16;5094719;27;20048;-45
2023/05/06 11:17:32;;;;;;;13.23;3.50;;;;;;;16.34;79.41;100383.53;5091171;28;20059;-45
2023/05/06 11:20:22;;;;;;;10.45;3.75;;;;;;;16.21;79.05;100379.47;5086751;28;20116;-45
2023/05/06 11:23:09;;;;;;;18.77;4.88;;;;;;;16.13;78.88;100372.25;5098058;28;20093;-46
2023/05/06 11:25:58;;;;;;;15.15;3.15;;;;;;;16.09;78.76;100388.22;5096575;28;20074;-45
2023/05/06 11:28:50;;;;;;;10.70;3.15;;;;;;;15.99;78.49;100383.34;5091859;28;20056;-45
2023/05/06 11:31:38;;;;;;;9.15;3.60;;;;;;;15.90;78.43;100377.34;5097925;27;20044;-45
2023/05/06 11:34:30;;;;;;;10.13;3.15;;;;;;;15.88;78.46;100371.34;5092036;28;20048;-47
2023/05/06 11:37:27;;;;;;;13.00;3.33;;;;;;;15.86;78.37;100370.91;5096299;28;20070;-46
2023/05/06 11:40:17;;;;;;;8.77;2.38;;;;;;;15.86;78.49;100373.69;5096612;28;20504;-45
2023/05/06 11:43:14;;;;;;;9.18;2.90;;;;;;;15.95;78.81;100371.38;5090375;28;20044;-45
2023/05/06 11:46:01;;;;;;;7.25;2.67;;;;;;;16.13;78.07;100377.84;5094184;28;20051;-51
2023/05/06 11:48:49;;;;;;;11.20;2.78;;;;;;;16.36;77.91;100372.75;5099522;27;20093;-47
2023/05/06 11:51:36;;;;;;;9.82;4.40;;;;;;;16.63;77.55;100378.06;5096118;28;20413;-45
2023/05/06 11:54:26;;;;;;;8.27;3.38;;;;;;;16.84;77.15;100378.13;5097822;28;20047;-46
2023/05/06 11:57:13;;;;;;;5.65;2.65;;;;;;;16.91;76.85;100383.75;5092071;28;20048;-48
2023/05/06 12:00:00;;;;;;;9.82;2.85;;;;;;;16.92;76.49;100393.72;5089572;28;20040;-45
2023/05/06 12:02:47;;;;;;;11.10;3.05;;;;;;;16.85;76.28;100383.34;5099996;28;20417;-46
2023/05/06 12:05:34;;;;;;;6.35;2.50;;;;;;;16.84;76.34;100378.13;5108734;27;20256;-45
2023/05/06 12:08:40;;;;;;;8.18;2.50;;;;;;;16.95;75.76;100376.16;5076205;28;20056;-46
2023/05/06 12:11:27;;;;;;;5.50;2.38;;;;;;;17.02;75.82;100384.56;5088610;28;20063;-46
2023/05/06 12:14:14;;;;;;;7.03;2.33;;;;;;;17.13;75.50;100392.97;5092317;28;20497;-47
2023/05/06 12:17:02;;;;;;;6.88;2.72;;;;;;;17.18;75.02;100382.19;5095276;28;20085;-45
2023/05/06 12:19:49;;;;;;;7.53;3.00;;;;;;;17.16;74.62;100390.16;5094915;28;20052;-45
2023/05/06 12:22:37;;;;;;;8.80;2.25;;;;;;;17.09;74.52;100387.38;5098438;28;20591;-46
2023/05/06 12:25:24;;;;;;;8.98;3.78;;;;;;;17.13;74.54;100390.94;5097024;28;20409;-45
2023/05/06 12:28:16;;;;;;;9.43;3.83;;;;;;;17.25;74.30;100385.00;5091377;28;20070;-45
2023/05/06 12:31:23;;;;;;;6.30;2.70;;;;;;;17.41;74.32;100388.19;5091174;28;20048;-45
2023/05/06 12:34:10;;;;;;;9.82;2.92;;;;;;;17.45;73.82;100390.97;5089512;28;20531;-46
2023/05/06 12:36:57;;;;;;;7.78;3.42;;;;;;;17.44;73.48;100400.59;5096358;28;20048;-50
2023/05/06 12:39:44;;;;;;;7.57;2.83;;;;;;;17.42;73.47;100398.16;5098279;28;20040;-45
2023/05/06 12:42:31;;;;;;;10.07;3.17;;;;;;;17.52;73.18;100391.00;5097377;28;20051;-49
2023/05/06 12:45:18;;;;;;;8.80;2.40;;;;;;;17.63;72.96;100392.59;5092882;28;20401;-53
2023/05/06 12:48:06;;;;;;;8.23;2.72;;;;;;;17.83;72.67;100390.19;5099460;28;20047;-46
2023/05/06 12:50:53;;;;;;;9.20;2.92;;;;;;;18.01;72.49;100384.53;5096855;28;20417;-45
2023/05/06 12:53:40;;;;;;;15.25;4.95;;;;;;;18.13;71.77;100389.72;5090659;28;20532;-46
2023/05/06 12:56:27;;;;;;;11.95;4.43;;;;;;;18.08;71.37;100388.09;5093444;28;20044;-46
2023/05/06 12:59:14;;;;;;;12.50;4.22;;;;;;;18.14;71.03;100382.88;5091579;28;20079;-50